createdAt,value
2022-09-06T00:01:46.993Z,123.78
2022-09-06T00:04:16.408Z,132.32
2022-09-06T00:06:47.050Z,138.52
2022-09-06T00:09:16.327Z,129.82
2022-09-06T00:11:45.526Z,128.68
2022-09-06T00:14:14.699Z,126.80
2022-09-06T00:16:43.904Z,138.23
2022-09-06T00:19:13.182Z,149.65
2022-09-06T00:21:43.501Z,145.02
2022-09-06T00:24:14.117Z,143.75
2022-09-06T00:26:43.308Z,168.68
2022-09-06T00:29:12.565Z,117.95
2022-09-06T00:31:41.866Z,133.13
2022-09-06T00:34:11.076Z,135.15
2022-09-06T00:36:40.633Z,143.75
2022-09-06T00:39:11.271Z,136.40
2022-09-06T00:41:42.135Z,137.38
2022-09-06T00:44:11.496Z,144.13
2022-09-06T00:46:45.390Z,148.82
2022-09-06T00:49:24.364Z,130.98
2022-09-06T00:51:57.770Z,152.45
2022-09-06T00:54:27.629Z,146.05
2022-09-06T00:56:59.312Z,143.48
2022-09-06T00:59:30.966Z,174.60
2022-09-06T01:02:00.807Z,158.52
2022-09-06T01:04:30.956Z,388.50
2022-09-06T01:07:13.922Z,140.30
2022-09-06T01:10:06.217Z,164.10
2022-09-06T01:12:51.181Z,148.52
2022-09-06T01:15:32.623Z,133.75
2022-09-06T01:18:23.870Z,130.88
2022-09-06T01:21:15.741Z,136.15
2022-09-06T01:24:22.015Z,127.70
2022-09-06T01:27:53.911Z,128.15
2022-09-06T01:30:25.901Z,133.20
2022-09-06T01:33:04.124Z,158.73
2022-09-06T01:35:40.064Z,185.63
2022-09-06T01:38:10.835Z,139.40
2022-09-06T01:40:40.248Z,139.93
2022-09-06T01:43:13.922Z,228.82
2022-09-06T01:46:00.595Z,143.38
2022-09-06T01:48:52.516Z,142.50
2022-09-06T01:51:31.894Z,176.13
2022-09-06T01:54:20.443Z,153.20
2022-09-06T01:57:00.786Z,148.77
2022-09-06T01:59:46.545Z,142.75
2022-09-06T02:02:26.232Z,242.50
2022-09-06T02:05:02.207Z,280.27
2022-09-06T02:07:34.411Z,178.30
2022-09-06T02:10:11.177Z,165.65
2022-09-06T02:12:44.901Z,172.32
2022-09-06T02:15:21.027Z,280.27
2022-09-06T02:17:58.628Z,155.25
2022-09-06T02:20:32.990Z,155.15
2022-09-06T02:23:08.537Z,155.20
2022-09-06T02:25:43.392Z,171.25
2022-09-06T02:28:14.442Z,157.35
2022-09-06T02:30:50.393Z,215.60
2022-09-06T02:33:25.982Z,166.75
2022-09-06T02:35:56.672Z,214.85
2022-09-06T02:38:28.216Z,180.18
2022-09-06T02:40:58.105Z,190.68
2022-09-06T02:43:27.330Z,160.88
2022-09-06T02:45:56.549Z,168.55
2022-09-06T02:48:27.523Z,183.25
2022-09-06T02:50:56.989Z,173.75
2022-09-06T02:53:27.013Z,191.35
2022-09-06T02:55:57.274Z,184.35
2022-09-06T02:58:26.597Z,230.65
2022-09-06T03:00:56.135Z,198.20
2022-09-06T03:03:27.510Z,167.15
2022-09-06T03:05:57.171Z,263.95
2022-09-06T03:08:29.391Z,182.05
2022-09-06T03:10:58.875Z,175.27
2022-09-06T03:13:28.362Z,163.02
2022-09-06T03:16:00.029Z,177.25
2022-09-06T03:18:32.738Z,160.77
2022-09-06T03:21:02.237Z,252.65
2022-09-06T03:23:31.895Z,180.45
2022-09-06T03:26:01.111Z,271.77
2022-09-06T03:28:30.356Z,205.82
2022-09-06T03:31:00.392Z,183.50
2022-09-06T03:33:31.214Z,227.43
2022-09-06T03:36:04.109Z,185.30
2022-09-06T03:38:33.966Z,165.10
2022-09-06T03:41:03.501Z,192.85
2022-09-06T03:43:32.977Z,165.45
2022-09-06T03:46:02.656Z,292.10
2022-09-06T03:48:33.404Z,258.98
2022-09-06T03:51:02.816Z,180.68
2022-09-06T03:53:32.180Z,219.98
2022-09-06T03:56:01.578Z,208.27
2022-09-06T03:58:33.601Z,233.40
2022-09-06T04:01:06.116Z,153.27
2022-09-06T04:06:07.944Z,183.02
2022-09-06T04:08:37.688Z,297.90
2022-09-06T04:11:07.862Z,183.60
2022-09-06T04:13:38.136Z,145.95
2022-09-06T04:16:08.199Z,368.23
2022-09-06T04:18:39.119Z,189.02
2022-09-06T04:21:08.721Z,164.52
2022-09-06T04:23:40.044Z,201.02
2022-09-06T04:26:09.673Z,183.50
2022-09-06T04:28:38.928Z,179.27
2022-09-06T04:31:08.154Z,143.27
2022-09-06T04:33:39.871Z,188.40
2022-09-06T04:36:11.907Z,193.73
2022-09-06T04:38:44.198Z,215.07
2022-09-06T04:41:16.415Z,205.27
2022-09-06T04:43:46.036Z,173.07
2022-09-06T04:46:22.868Z,219.02
2022-09-06T04:48:54.780Z,217.90
2022-09-06T04:51:25.846Z,183.93
2022-09-06T04:53:55.431Z,210.63
2022-09-06T04:56:27.393Z,170.98
2022-09-06T04:58:57.430Z,295.08
2022-09-06T05:01:27.442Z,219.90
2022-09-06T05:03:58.223Z,180.57
2022-09-06T05:06:27.682Z,284.38
2022-09-06T05:08:56.849Z,188.98
2022-09-06T05:11:26.270Z,227.88
2022-09-06T05:13:55.735Z,151.85
2022-09-06T05:16:25.030Z,153.10
2022-09-06T05:18:54.380Z,170.40
2022-09-06T05:21:25.122Z,152.70
2022-09-06T05:23:58.553Z,177.43
2022-09-06T05:26:28.333Z,167.15
2022-09-06T05:28:57.557Z,157.23
2022-09-06T05:31:29.608Z,155.15
2022-09-06T05:33:59.955Z,271.63
2022-09-06T05:36:32.180Z,142.50
2022-09-06T05:41:30.962Z,122.45
2022-09-06T05:44:00.383Z,129.43
2022-09-06T05:46:29.707Z,186.65
2022-09-06T05:49:04.954Z,128.02
2022-09-06T05:51:36.021Z,123.30
2022-09-06T05:54:05.633Z,115.80
2022-09-06T05:56:35.045Z,146.45
2022-09-06T05:59:04.602Z,141.38
2022-09-06T06:01:37.904Z,171.95
2022-09-06T06:04:08.141Z,124.72
2022-09-06T06:06:41.244Z,129.68
2022-09-06T06:09:10.693Z,152.93
2022-09-06T06:11:43.305Z,141.00
2022-09-06T06:14:12.734Z,126.18
2022-09-06T06:16:44.978Z,122.30
2022-09-06T06:19:14.602Z,205.70
2022-09-06T06:21:45.159Z,109.82
2022-09-06T06:24:14.540Z,118.50
2022-09-06T06:26:45.841Z,123.63
2022-09-06T06:29:15.394Z,122.97
2022-09-06T06:31:44.849Z,122.43
2022-09-06T06:34:14.167Z,121.35
2022-09-06T06:36:46.613Z,119.78
2022-09-06T06:39:16.999Z,155.32
2022-09-06T06:41:46.521Z,131.15
2022-09-06T06:44:39.611Z,122.60
2022-09-06T06:47:09.003Z,140.40
2022-09-06T06:49:39.393Z,111.75
2022-09-06T06:52:10.088Z,142.30
2022-09-06T06:54:39.571Z,210.40
2022-09-06T06:57:09.661Z,129.00
2022-09-06T06:59:39.965Z,117.65
2022-09-06T07:02:12.803Z,218.57
2022-09-06T07:04:42.169Z,123.20
2022-09-06T07:12:56.960Z,132.18
2022-09-06T07:15:26.950Z,162.32
2022-09-06T07:17:56.951Z,196.68
2022-09-06T07:20:27.359Z,160.25
2022-09-06T07:25:56.041Z,166.52
2022-09-06T07:28:25.642Z,156.93
2022-09-06T07:30:56.448Z,168.25
2022-09-06T07:33:26.258Z,195.88
2022-09-06T07:36:01.448Z,212.90
2022-09-06T07:38:33.001Z,157.23
2022-09-06T07:41:05.320Z,173.65
2022-09-06T07:43:35.768Z,148.30
2022-09-06T07:46:07.963Z,153.70
2022-09-06T07:48:40.358Z,131.43
2022-09-06T07:51:12.758Z,184.40
2022-09-06T07:53:45.275Z,138.02
2022-09-06T07:56:15.087Z,145.27
2022-09-06T07:58:44.418Z,146.45
2022-09-06T08:01:28.025Z,172.68
2022-09-06T08:03:58.373Z,175.10
2022-09-06T08:06:31.490Z,148.85
2022-09-06T08:09:02.805Z,236.82
2022-09-06T08:11:35.110Z,171.90
2022-09-06T08:14:07.040Z,151.00
2022-09-06T08:16:38.709Z,205.30
2022-09-06T08:19:10.592Z,154.13
2022-09-06T08:21:40.666Z,178.05
2022-09-06T08:24:11.736Z,161.93
2022-09-06T08:26:42.830Z,185.75
2022-09-06T08:29:14.033Z,232.20
2022-09-06T08:31:45.087Z,191.27
2022-09-06T08:34:16.105Z,184.68
2022-09-06T08:36:46.587Z,195.40
2022-09-06T08:39:17.350Z,190.55
2022-09-06T08:41:56.534Z,214.05
2022-09-06T08:47:21.838Z,154.27
2022-09-06T08:49:55.360Z,176.95
2022-09-06T08:53:13.612Z,169.90
2022-09-06T08:55:50.326Z,146.57
2022-09-06T08:58:36.651Z,176.13
2022-09-06T09:01:14.011Z,166.77
2022-09-06T09:03:45.373Z,212.52
2022-09-06T09:06:14.736Z,202.25
2022-09-06T09:08:49.430Z,210.07
2022-09-06T09:11:22.790Z,207.55
2022-09-06T09:13:56.857Z,205.48
2022-09-06T09:16:26.657Z,206.43
2022-09-06T09:19:00.652Z,207.63
2022-09-06T09:21:32.929Z,228.57
2022-09-06T09:24:07.694Z,211.85
2022-09-06T09:26:50.788Z,196.60
2022-09-06T09:29:25.358Z,250.30
2022-09-06T09:31:57.441Z,219.68
2022-09-06T09:34:33.984Z,224.52
2022-09-06T09:40:04.098Z,197.90
2022-09-06T09:42:38.690Z,191.18
2022-09-06T09:45:31.232Z,206.15
2022-09-06T09:48:20.990Z,173.98
2022-09-06T09:50:50.585Z,165.48
2022-09-06T09:53:23.023Z,162.85
2022-09-06T09:55:58.851Z,196.45
2022-09-06T09:58:36.286Z,158.57
2022-09-06T10:01:22.821Z,202.13
2022-09-06T10:09:37.587Z,222.52
2022-09-06T10:12:07.762Z,209.30
2022-09-06T10:14:45.645Z,250.57
2022-09-06T10:17:32.194Z,248.77
2022-09-06T10:20:07.843Z,240.35
2022-09-06T10:22:53.007Z,225.43
2022-09-06T10:25:49.549Z,247.57
2022-09-06T10:28:36.574Z,222.90
2022-09-06T10:31:37.999Z,185.27
2022-09-06T10:34:29.490Z,242.98
2022-09-06T10:37:10.719Z,216.85
2022-09-06T10:39:50.969Z,189.70
2022-09-06T10:42:34.092Z,203.18
2022-09-06T10:45:25.262Z,189.48
2022-09-06T10:48:03.287Z,196.63
2022-09-06T10:50:45.026Z,254.57
2022-09-06T10:53:26.241Z,223.68
2022-09-06T10:56:06.332Z,215.65
2022-09-06T11:01:43.785Z,186.90
2022-09-06T11:04:26.463Z,173.55
2022-09-06T11:07:03.427Z,171.18
2022-09-06T11:09:40.543Z,172.52
2022-09-06T11:12:16.278Z,205.05
2022-09-06T11:14:45.532Z,200.10
2022-09-06T11:17:28.227Z,206.90
2022-09-06T11:23:14.847Z,150.70
2022-09-06T11:26:18.467Z,159.75
2022-09-06T11:28:53.718Z,150.63
2022-09-06T11:34:24.748Z,150.10
2022-09-06T11:36:59.075Z,192.48
2022-09-06T11:43:17.064Z,159.07
2022-09-06T11:45:50.930Z,174.45
2022-09-06T11:49:01.316Z,255.07
2022-09-06T11:51:38.343Z,175.20
2022-09-06T11:54:42.682Z,166.25
2022-09-06T11:57:17.621Z,155.70
2022-09-06T12:00:04.877Z,192.88
2022-09-06T12:02:39.287Z,179.82
2022-09-06T12:05:31.949Z,154.25
2022-09-06T12:08:29.310Z,162.23
2022-09-06T12:11:07.165Z,170.15
2022-09-06T12:13:52.680Z,253.70
2022-09-06T12:16:22.434Z,149.57
2022-09-06T12:19:04.968Z,164.77
2022-09-06T14:23:52.421Z,117.90
2022-09-06T14:26:23.229Z,129.73
2022-09-06T14:28:53.163Z,178.88
2022-09-06T14:31:26.104Z,161.10
2022-09-06T14:33:56.681Z,135.25
2022-09-06T14:36:29.375Z,163.18
2022-09-06T14:39:01.315Z,157.27
2022-09-06T14:41:30.923Z,147.77
2022-09-06T14:44:00.978Z,138.10
2022-09-06T14:46:30.869Z,150.75
2022-09-06T14:49:02.467Z,153.50
2022-09-06T14:51:32.145Z,131.65
2022-09-06T14:54:06.368Z,188.05
2022-09-06T14:56:36.069Z,153.77
2022-09-06T14:59:05.595Z,225.32
2022-09-06T15:01:38.656Z,148.23
2022-09-06T15:04:10.459Z,216.50
2022-09-06T15:06:45.026Z,207.90
2022-09-06T15:09:16.224Z,146.55
2022-09-06T15:11:48.289Z,145.25
2022-09-06T15:14:22.568Z,159.57
2022-09-06T15:16:56.517Z,172.07
2022-09-06T15:19:27.035Z,167.13
2022-09-06T15:21:57.407Z,156.75
2022-09-06T15:24:28.779Z,162.10
2022-09-06T15:26:58.578Z,151.48
2022-09-06T15:29:28.569Z,155.80
2022-09-06T15:31:57.836Z,173.43
2022-09-06T15:34:28.132Z,154.35
2022-09-06T15:36:57.849Z,152.10
2022-09-06T15:39:28.736Z,146.95
2022-09-06T15:41:58.416Z,182.27
2022-09-06T15:44:27.744Z,148.70
2022-09-06T15:46:59.240Z,154.60
2022-09-06T15:49:32.069Z,170.00
2022-09-06T15:52:03.698Z,143.95
2022-09-06T15:54:51.881Z,170.23
2022-09-06T15:57:21.224Z,139.13
2022-09-06T15:59:50.422Z,152.27
2022-09-06T16:02:19.668Z,185.57
2022-09-06T16:04:48.918Z,181.35
2022-09-06T16:07:18.650Z,146.48
2022-09-06T16:09:49.370Z,153.68
2022-09-06T16:12:18.707Z,171.15
2022-09-06T16:14:47.916Z,155.05
2022-09-06T16:17:17.080Z,150.60
2022-09-06T16:19:46.295Z,154.93
2022-09-06T16:22:15.517Z,173.57
2022-09-06T16:24:44.970Z,137.80
2022-09-06T16:27:15.543Z,156.63
2022-09-06T16:29:45.349Z,173.60
2022-09-06T16:32:14.638Z,161.50
2022-09-06T16:34:43.909Z,143.57
2022-09-06T16:37:13.040Z,176.82
2022-09-06T16:39:43.220Z,159.50
2022-09-06T16:42:13.419Z,164.95
2022-09-06T16:44:44.080Z,166.93
2022-09-06T16:47:16.438Z,149.63
2022-09-06T16:49:46.254Z,139.98
2022-09-06T16:52:15.547Z,168.05
2022-09-06T16:54:44.856Z,146.55
2022-09-06T16:57:14.996Z,135.93
2022-09-06T16:59:45.747Z,142.52
2022-09-06T17:02:15.161Z,142.68
2022-09-06T17:04:44.468Z,140.95
2022-09-06T17:07:14.432Z,150.15
2022-09-06T17:09:43.838Z,163.60
2022-09-06T17:12:13.324Z,130.68
2022-09-06T17:14:42.631Z,142.15
2022-09-06T17:17:13.399Z,138.23
2022-09-06T17:19:43.384Z,129.93
2022-09-06T17:22:14.922Z,162.10
2022-09-06T17:24:44.195Z,140.65
2022-09-06T17:27:13.514Z,136.93
2022-09-06T17:29:42.732Z,140.85
2022-09-06T17:32:13.296Z,116.18
2022-09-06T17:34:42.687Z,120.50
2022-09-06T17:37:12.326Z,127.35
2022-09-06T17:39:42.422Z,117.95
2022-09-06T17:42:11.706Z,127.65
2022-09-06T17:44:40.967Z,129.65
2022-09-06T17:47:14.095Z,131.68
2022-09-06T17:49:45.356Z,159.30
2022-09-06T17:52:14.765Z,141.50
2022-09-06T17:54:46.776Z,134.73
2022-09-06T17:57:16.126Z,123.95
2022-09-06T17:59:45.330Z,127.13
2022-09-06T18:02:14.752Z,135.75
2022-09-06T18:04:45.611Z,131.32
2022-09-06T18:07:15.042Z,121.55
2022-09-06T18:09:44.573Z,121.68
2022-09-06T18:12:13.920Z,113.13
2022-09-06T18:14:43.196Z,114.05
2022-09-06T18:17:12.550Z,106.32
2022-09-06T18:19:41.894Z,102.95
2022-09-06T18:22:12.492Z,101.78
2022-09-06T18:24:41.770Z,104.47
2022-09-06T18:27:11.416Z,93.50
2022-09-06T18:29:40.685Z,99.18
2022-09-06T18:32:10.297Z,93.95
2022-09-06T18:34:39.821Z,101.10
2022-09-06T18:37:09.107Z,133.23
2022-09-06T18:39:42.003Z,103.20
2022-09-06T18:42:12.360Z,93.28
2022-09-06T18:44:42.318Z,90.38
2022-09-06T18:47:13.444Z,95.35
2022-09-06T18:49:44.267Z,88.10
2022-09-06T18:52:13.962Z,95.45
2022-09-06T18:54:44.970Z,90.72
2022-09-06T18:57:15.954Z,98.97
2022-09-06T18:59:46.217Z,90.00
2022-09-06T19:02:16.158Z,90.70
2022-09-06T19:04:46.174Z,96.50
2022-09-06T19:07:15.546Z,93.55
2022-09-06T19:09:46.555Z,88.55
2022-09-06T19:12:16.083Z,92.85
2022-09-06T19:14:45.641Z,87.45
2022-09-06T19:17:15.099Z,98.45
2022-09-06T19:19:44.454Z,93.35
2022-09-06T19:22:13.888Z,104.60
2022-09-06T19:24:44.050Z,96.63
2022-09-06T19:27:14.950Z,101.57
2022-09-06T19:29:47.205Z,101.07
2022-09-06T19:32:18.847Z,101.07
2022-09-06T19:34:48.239Z,90.53
2022-09-06T19:37:20.218Z,91.55
2022-09-06T19:39:49.764Z,99.82
2022-09-06T19:42:20.747Z,94.47
2022-09-06T19:44:50.024Z,89.97
2022-09-06T19:47:19.315Z,93.28
2022-09-06T19:49:48.796Z,89.72
2022-09-06T19:52:18.587Z,93.45
2022-09-06T19:54:48.057Z,89.80
2022-09-06T19:57:17.378Z,84.32
2022-09-06T19:59:48.027Z,94.63
2022-09-06T20:02:17.417Z,99.20
2022-09-06T20:04:47.081Z,90.55
2022-09-06T20:07:16.555Z,84.78
2022-09-06T20:09:48.483Z,88.63
2022-09-06T20:12:21.171Z,85.80
2022-09-06T20:14:51.776Z,88.75
2022-09-06T20:17:33.337Z,86.05
2022-09-06T20:20:04.743Z,82.32
2022-09-06T20:22:34.071Z,85.25
2022-09-06T20:25:03.403Z,89.00
2022-09-06T20:27:32.618Z,89.05
2022-09-06T20:30:03.756Z,89.18
2022-09-06T20:32:33.945Z,88.93
2022-09-06T20:35:03.298Z,90.18
2022-09-06T20:37:32.705Z,94.03
2022-09-06T20:40:02.239Z,90.07
2022-09-06T20:42:31.936Z,94.40
2022-09-06T20:45:03.747Z,92.32
2022-09-06T20:47:33.093Z,91.60
2022-09-06T20:50:02.549Z,90.82
2022-09-06T20:52:34.446Z,87.18
2022-09-06T20:55:03.894Z,84.03
2022-09-06T20:57:33.304Z,87.55
2022-09-06T21:00:05.276Z,79.90
2022-09-06T21:02:34.645Z,81.20
2022-09-06T21:05:05.459Z,84.50
2022-09-06T21:07:35.033Z,82.28
2022-09-06T21:10:04.481Z,83.65
2022-09-06T21:12:33.942Z,87.78
2022-09-06T21:15:04.871Z,80.20
2022-09-06T21:17:34.225Z,75.88
2022-09-06T21:20:04.767Z,76.30
2022-09-06T21:22:34.052Z,79.53
2022-09-06T21:25:03.661Z,77.88
2022-09-06T21:27:33.507Z,71.93
2022-09-06T21:30:04.333Z,69.97
2022-09-06T21:32:33.674Z,75.50
2022-09-06T21:35:06.643Z,81.07
2022-09-06T21:37:35.905Z,71.00
2022-09-06T21:40:05.829Z,77.85
2022-09-06T21:42:35.157Z,66.95
2022-09-06T21:45:06.931Z,72.80
2022-09-06T21:47:36.196Z,74.38
2022-09-06T21:50:06.166Z,75.05
2022-09-06T21:52:35.482Z,80.20
2022-09-06T21:55:06.379Z,71.05
2022-09-06T21:57:35.688Z,77.63
2022-09-06T22:00:09.253Z,77.90
2022-09-06T22:02:38.699Z,80.68
2022-09-06T22:05:08.579Z,75.53
2022-09-06T22:07:38.371Z,86.45
2022-09-06T22:10:08.449Z,78.68
2022-09-06T22:12:37.746Z,79.43
2022-09-06T22:15:10.719Z,80.93
2022-09-06T22:17:40.069Z,81.20
2022-09-06T22:20:11.994Z,93.63
2022-09-06T22:22:41.398Z,78.45
2022-09-06T22:25:11.182Z,80.82
2022-09-06T22:27:40.390Z,80.00
2022-09-06T22:30:12.741Z,84.13
2022-09-06T22:32:42.235Z,89.43
2022-09-06T22:35:11.794Z,87.53
2022-09-06T22:37:41.232Z,94.13
2022-09-06T22:40:12.556Z,86.93
2022-09-06T22:42:41.823Z,89.47
2022-09-06T22:45:13.217Z,92.82
2022-09-06T22:47:42.506Z,92.38
2022-09-06T22:50:12.558Z,126.38
2022-09-06T22:52:41.750Z,96.85
2022-09-06T22:55:12.530Z,107.05
2022-09-06T22:57:41.781Z,79.72
2022-09-06T23:00:15.180Z,170.63
2022-09-06T23:02:44.449Z,98.35
2022-09-06T23:05:13.633Z,99.43
2022-09-06T23:07:43.562Z,90.03
2022-09-06T23:10:12.929Z,83.97
2022-09-06T23:12:42.174Z,88.63
2022-09-06T23:15:13.192Z,99.60
2022-09-06T23:17:42.415Z,94.50
2022-09-06T23:20:11.903Z,88.10
2022-09-06T23:22:41.292Z,78.78
2022-09-06T23:25:11.343Z,85.55
2022-09-06T23:27:40.762Z,84.70
2022-09-06T23:30:12.910Z,124.60
2022-09-06T23:32:42.068Z,99.68
2022-09-06T23:35:11.724Z,98.20
2022-09-06T23:37:41.085Z,123.93
2022-09-06T23:40:11.485Z,120.95
2022-09-06T23:42:40.828Z,105.65
2022-09-06T23:45:12.623Z,96.40
2022-09-06T23:47:41.922Z,235.50
2022-09-06T23:50:12.002Z,118.10
2022-09-06T23:52:41.174Z,109.05
2022-09-06T23:55:11.264Z,147.73
2022-09-06T23:57:40.471Z,116.68
